Time;durP1;ratioP1;P1;durP2;ratioP2;P2;SDS_P1;SDS_P2;PMS_P1;PMS_P2;Temp;Humidity;BMP_temperature;BMP_pressure;BME280_temperature;BME280_humidity;BME280_pressure;Samples;Min_cycle;Max_cycle;Signal;HPM_P1;HPM_P2
2022/01/02 00:01:48;;;;;;;19.65;14.93;;;;;;;;;;5071629;28;20476;-75
2022/01/02 00:04:18;;;;;;;16.95;12.68;;;;;;;;;;5071750;28;20043;-77
2022/01/02 00:06:49;;;;;;;15.13;13.23;;;;;;;;;;5071542;28;20028;-79
2022/01/02 00:09:20;;;;;;;10.85;9.60;;;;;;;;;;5071817;28;20033;-79
2022/01/02 00:11:47;;;;;;;10.73;8.55;;;;;;;;;;5071659;28;20029;-78
2022/01/02 00:14:14;;;;;;;11.63;9.80;;;;;;;;;;5071798;28;20028;-75
2022/01/02 00:16:40;;;;;;;9.18;7.93;;;;;;;;;;5075254;28;20426;-79
2022/01/02 00:19:29;;;;;;;20.40;15.85;;;;;;;;;;5075427;28;20032;-76
2022/01/02 00:21:59;;;;;;;19.77;14.90;;;;;;;;;;5075070;28;20025;-75
2022/01/02 00:24:26;;;;;;;11.13;9.48;;;;;;;;;;5074724;28;20164;-76
2022/01/02 00:26:54;;;;;;;17.00;13.48;;;;;;;;;;5075375;28;20352;-77
2022/01/02 00:29:21;;;;;;;19.52;15.30;;;;;;;;;;5073565;28;20039;-76
2022/01/02 00:31:47;;;;;;;15.85;12.43;;;;;;;;;;5075218;28;20490;-77
2022/01/02 00:34:14;;;;;;;16.02;8.55;;;;;;;;;;5074766;28;20037;-77
2022/01/02 00:36:42;;;;;;;11.02;7.05;;;;;;;;;;5075242;28;20032;-79
2022/01/02 00:39:09;;;;;;;9.13;6.68;;;;;;;;;;5074783;28;20094;-81
2022/01/02 00:41:35;;;;;;;10.73;7.15;;;;;;;;;;5074902;28;20391;-78
2022/01/02 00:44:13;;;;;;;8.80;6.20;;;;;;;;;;5074985;28;20036;-78
2022/01/02 00:46:48;;;;;;;9.85;6.93;;;;;;;;;;5075013;28;20031;-77
2022/01/02 00:49:17;;;;;;;9.63;6.07;;;;;;;;;;5074830;28;20024;-77
2022/01/02 00:51:51;;;;;;;9.00;7.18;;;;;;;;;;5073661;28;20029;-76
2022/01/02 00:54:18;;;;;;;9.10;6.03;;;;;;;;;;5074897;28;20031;-79
2022/01/02 00:56:46;;;;;;;9.65;6.47;;;;;;;;;;5074775;28;20059;-80
2022/01/02 00:59:31;;;;;;;9.93;6.72;;;;;;;;;;5074846;28;20054;-80
2022/01/02 01:02:03;;;;;;;10.45;6.90;;;;;;;;;;5074784;28;20029;-77
2022/01/02 01:04:32;;;;;;;13.38;7.55;;;;;;;;;;5074556;28;20036;-82
2022/01/02 01:07:02;;;;;;;12.88;6.72;;;;;;;;;;5074922;28;20029;-82
2022/01/02 01:09:29;;;;;;;13.80;8.30;;;;;;;;;;5074446;28;20074;-79
2022/01/02 01:11:57;;;;;;;12.57;6.90;;;;;;;;;;5074737;28;20055;-78
2022/01/02 01:14:23;;;;;;;12.25;7.13;;;;;;;;;;5074443;28;20035;-78
2022/01/02 01:16:50;;;;;;;9.80;6.30;;;;;;;;;;5073282;28;20383;-79
2022/01/02 01:19:22;;;;;;;7.78;5.18;;;;;;;;;;5074452;28;20032;-78
2022/01/02 01:21:49;;;;;;;5.20;4.35;;;;;;;;;;5073388;28;20771;-75
2022/01/02 01:24:17;;;;;;;7.45;5.60;;;;;;;;;;5073965;28;20422;-78
2022/01/02 01:26:46;;;;;;;5.43;4.78;;;;;;;;;;5073911;28;20056;-80
2022/01/02 01:29:14;;;;;;;6.00;4.60;;;;;;;;;;5072739;28;20049;-81
2022/01/02 01:31:40;;;;;;;5.22;4.72;;;;;;;;;;5074172;28;20074;-77
2022/01/02 01:34:08;;;;;;;6.40;4.80;;;;;;;;;;5074155;28;20464;-80
2022/01/02 01:36:35;;;;;;;6.70;5.63;;;;;;;;;;5073966;28;20029;-79
2022/01/02 01:39:01;;;;;;;6.57;5.28;;;;;;;;;;5073869;28;20024;-78
2022/01/02 01:41:38;;;;;;;7.25;5.55;;;;;;;;;;5073780;28;20032;-81
2022/01/02 01:46:36;;;;;;;10.43;6.45;;;;;;;;;;5073938;28;20067;-78
2022/01/02 01:49:13;;;;;;;7.97;5.25;;;;;;;;;;5073482;28;20029;-80
2022/01/02 01:51:39;;;;;;;7.80;6.35;;;;;;;;;;5073953;28;20483;-80
2022/01/02 01:54:05;;;;;;;9.48;6.60;;;;;;;;;;5073639;28;20036;-76
2022/01/02 01:56:31;;;;;;;9.18;6.28;;;;;;;;;;5073635;28;20044;-79
2022/01/02 01:58:57;;;;;;;10.60;8.00;;;;;;;;;;5073884;28;20490;-80
2022/01/02 02:01:24;;;;;;;11.32;8.52;;;;;;;;;;5073720;28;20024;-81
2022/01/02 02:03:50;;;;;;;10.18;7.45;;;;;;;;;;5073442;28;20035;-76
2022/01/02 02:06:16;;;;;;;8.93;6.88;;;;;;;;;;5071824;28;20024;-80
2022/01/02 02:08:42;;;;;;;9.05;6.45;;;;;;;;;;5073281;28;20032;-81
2022/01/02 02:11:12;;;;;;;7.63;6.18;;;;;;;;;;5073127;28;20053;-83
2022/01/02 02:16:24;;;;;;;7.05;5.80;;;;;;;;;;5073530;28;20086;-78
2022/01/02 02:18:50;;;;;;;8.65;6.50;;;;;;;;;;5072817;28;20025;-75
2022/01/02 02:21:16;;;;;;;8.93;6.80;;;;;;;;;;5073136;28;20446;-79
2022/01/02 02:23:45;;;;;;;8.20;6.82;;;;;;;;;;5072862;28;20494;-76
2022/01/02 02:26:11;;;;;;;6.32;5.32;;;;;;;;;;5072813;28;20114;-78
2022/01/02 02:28:37;;;;;;;6.68;4.80;;;;;;;;;;5072656;28;20467;-77
2022/01/02 02:31:03;;;;;;;7.00;5.25;;;;;;;;;;5072261;28;20477;-78
2022/01/02 02:33:30;;;;;;;8.60;5.32;;;;;;;;;;5070916;28;20060;-82
2022/01/02 02:35:57;;;;;;;7.93;5.88;;;;;;;;;;5072017;28;20031;-78
2022/01/02 02:38:28;;;;;;;6.03;5.10;;;;;;;;;;5071470;28;20024;-79
2022/01/02 02:40:56;;;;;;;5.88;5.10;;;;;;;;;;5068301;28;20436;-77
2022/01/02 02:51:27;;;;;;;6.30;5.07;;;;;;;;;;5072496;28;19912;-79
2022/01/02 02:53:54;;;;;;;7.28;5.45;;;;;;;;;;5072626;28;20039;-82
2022/01/02 02:58:50;;;;;;;5.88;4.85;;;;;;;;;;5072589;28;20040;-83
2022/01/02 03:01:18;;;;;;;7.07;5.53;;;;;;;;;;5072289;28;20033;-77
2022/01/02 03:03:45;;;;;;;6.72;5.78;;;;;;;;;;5072422;28;20035;-75
2022/01/02 03:06:12;;;;;;;6.82;5.25;;;;;;;;;;5072392;28;20016;-79
2022/01/02 03:08:40;;;;;;;7.00;5.78;;;;;;;;;;5072313;28;20025;-80
2022/01/02 03:11:09;;;;;;;6.63;5.38;;;;;;;;;;5072343;28;20073;-77
2022/01/02 03:13:35;;;;;;;7.18;5.78;;;;;;;;;;5072385;28;20399;-77
2022/01/02 03:16:01;;;;;;;6.38;5.38;;;;;;;;;;5072447;28;20024;-76
2022/01/02 03:18:28;;;;;;;6.22;5.35;;;;;;;;;;5072087;28;20467;-77
2022/01/02 03:20:56;;;;;;;6.20;5.07;;;;;;;;;;5072390;28;20043;-76
2022/01/02 03:23:22;;;;;;;6.40;5.25;;;;;;;;;;5072119;28;20103;-79
2022/01/02 03:25:50;;;;;;;5.80;4.75;;;;;;;;;;5070681;28;20418;-80
2022/01/02 03:28:16;;;;;;;7.88;5.95;;;;;;;;;;5071906;28;20062;-80
2022/01/02 03:30:43;;;;;;;8.50;5.95;;;;;;;;;;5072194;28;20082;-80
2022/01/02 03:33:09;;;;;;;6.70;5.32;;;;;;;;;;5072117;28;20017;-76
2022/01/02 03:35:35;;;;;;;7.65;5.97;;;;;;;;;;5072146;28;20032;-80
2022/01/02 03:38:02;;;;;;;6.43;5.50;;;;;;;;;;5072132;28;20020;-77
2022/01/02 03:40:28;;;;;;;6.75;5.65;;;;;;;;;;5072003;28;20062;-80
2022/01/02 03:42:54;;;;;;;9.15;6.35;;;;;;;;;;5071998;28;20024;-79
2022/01/02 03:45:20;;;;;;;7.13;5.43;;;;;;;;;;5071637;28;20547;-75
2022/01/02 03:47:46;;;;;;;7.75;5.45;;;;;;;;;;5070760;28;20387;-78
2022/01/02 03:50:13;;;;;;;8.82;5.80;;;;;;;;;;5075300;28;20456;-80
2022/01/02 03:52:39;;;;;;;9.02;5.80;;;;;;;;;;5075666;28;20043;-81
2022/01/02 03:55:06;;;;;;;9.73;6.13;;;;;;;;;;5074810;28;20036;-76
2022/01/02 03:57:32;;;;;;;6.10;4.90;;;;;;;;;;5075730;28;20028;-76
2022/01/02 03:59:58;;;;;;;5.78;4.70;;;;;;;;;;5075784;28;20068;-82
2022/01/02 04:02:24;;;;;;;6.55;4.97;;;;;;;;;;5075617;28;20418;-78
2022/01/02 04:04:50;;;;;;;6.30;4.95;;;;;;;;;;5075610;28;20047;-76
2022/01/02 04:07:17;;;;;;;5.97;4.32;;;;;;;;;;5074502;28;20099;-82
2022/01/02 04:09:45;;;;;;;5.80;4.85;;;;;;;;;;5075597;28;20028;-78
2022/01/02 04:12:11;;;;;;;6.30;4.75;;;;;;;;;;5075665;28;20387;-76
2022/01/02 04:14:37;;;;;;;5.35;4.65;;;;;;;;;;5075241;28;20032;-80
2022/01/02 04:17:06;;;;;;;21.90;15.63;;;;;;;;;;5075731;28;20047;-80
2022/01/02 04:19:34;;;;;;;6.35;5.00;;;;;;;;;;5075251;28;20025;-78
2022/01/02 04:22:00;;;;;;;6.20;5.22;;;;;;;;;;5075426;28;20043;-80
2022/01/02 04:24:26;;;;;;;6.22;4.65;;;;;;;;;;5074836;28;20499;-82
2022/01/02 04:26:52;;;;;;;6.03;5.32;;;;;;;;;;5075371;28;20028;-79
2022/01/02 04:29:18;;;;;;;7.28;5.10;;;;;;;;;;5075368;28;20028;-81
2022/01/02 04:31:45;;;;;;;6.15;4.72;;;;;;;;;;5075239;28;20029;-78
2022/01/02 04:34:11;;;;;;;6.53;4.97;;;;;;;;;;5075273;28;20028;-78
2022/01/02 04:36:37;;;;;;;5.78;4.57;;;;;;;;;;5074994;28;20468;-75
2022/01/02 04:39:03;;;;;;;7.72;6.13;;;;;;;;;;5075038;28;20028;-81
2022/01/02 04:41:29;;;;;;;6.55;5.35;;;;;;;;;;5074994;28;20025;-79
2022/01/02 04:43:57;;;;;;;7.07;5.75;;;;;;;;;;5075053;28;20044;-80
2022/01/02 04:46:24;;;;;;;6.30;4.95;;;;;;;;;;5075041;28;20036;-80
2022/01/02 04:48:50;;;;;;;8.95;5.30;;;;;;;;;;5074730;28;20097;-80
2022/01/02 04:51:16;;;;;;;9.68;5.80;;;;;;;;;;5074995;28;20024;-77
2022/01/02 04:53:47;;;;;;;7.43;6.25;;;;;;;;;;5074732;28;20032;-81
2022/01/02 04:56:16;;;;;;;8.05;5.85;;;;;;;;;;5074734;28;20120;-81
2022/01/02 04:58:43;;;;;;;6.18;5.38;;;;;;;;;;5074340;28;20029;-76
2022/01/02 05:01:14;;;;;;;6.32;5.30;;;;;;;;;;5073818;28;20107;-78
2022/01/02 05:03:43;;;;;;;6.85;5.75;;;;;;;;;;5074454;28;20075;-75
2022/01/02 05:06:09;;;;;;;7.07;5.55;;;;;;;;;;5074679;28;20040;-78
2022/01/02 05:08:36;;;;;;;6.55;5.47;;;;;;;;;;5074374;28;20108;-78
2022/01/02 05:11:02;;;;;;;7.93;6.03;;;;;;;;;;5074605;28;20119;-81
2022/01/02 05:13:28;;;;;;;6.55;5.10;;;;;;;;;;5074324;28;20060;-77
2022/01/02 05:15:54;;;;;;;6.10;5.50;;;;;;;;;;5074449;28;20028;-80
2022/01/02 05:18:21;;;;;;;10.25;6.63;;;;;;;;;;5074181;28;20025;-79
2022/01/02 05:20:47;;;;;;;8.52;7.07;;;;;;;;;;5074215;28;20028;-79
2022/01/02 05:23:14;;;;;;;10.70;8.05;;;;;;;;;;5073667;28;20104;-78
2022/01/02 05:25:40;;;;;;;9.35;7.65;;;;;;;;;;5073473;28;20448;-81
2022/01/02 05:28:06;;;;;;;9.30;6.40;;;;;;;;;;5074254;28;20036;-76
2022/01/02 05:30:32;;;;;;;9.07;7.00;;;;;;;;;;5073486;28;20024;-80
2022/01/02 05:32:58;;;;;;;7.93;6.00;;;;;;;;;;5074309;28;20025;-80
2022/01/02 05:35:24;;;;;;;7.95;5.97;;;;;;;;;;5074201;28;20071;-78
2022/01/02 05:37:51;;;;;;;9.32;6.47;;;;;;;;;;5072660;28;20025;-82
2022/01/02 05:40:17;;;;;;;8.40;7.13;;;;;;;;;;5073676;28;20052;-83
2022/01/02 05:42:43;;;;;;;7.20;6.38;;;;;;;;;;5073799;28;20056;-77
2022/01/02 05:45:09;;;;;;;6.80;5.75;;;;;;;;;;5073886;28;20127;-82
2022/01/02 05:47:38;;;;;;;7.05;6.05;;;;;;;;;;5072477;28;20442;-82
2022/01/02 05:50:04;;;;;;;7.22;6.30;;;;;;;;;;5073948;28;20044;-79
2022/01/02 05:52:31;;;;;;;9.38;7.15;;;;;;;;;;5073863;28;20028;-75
2022/01/02 05:54:58;;;;;;;7.97;6.60;;;;;;;;;;5073107;28;20120;-83
2022/01/02 05:57:24;;;;;;;10.75;6.43;;;;;;;;;;5073027;28;20054;-79
2022/01/02 05:59:50;;;;;;;10.75;7.82;;;;;;;;;;5072526;28;20040;-80
2022/01/02 06:02:23;;;;;;;9.93;7.32;;;;;;;;;;5073721;28;20028;-78
2022/01/02 06:04:49;;;;;;;12.00;8.70;;;;;;;;;;5073117;28;20043;-78
2022/01/02 06:07:16;;;;;;;9.30;6.65;;;;;;;;;;5073289;28;20028;-81
2022/01/02 06:09:42;;;;;;;11.50;7.20;;;;;;;;;;5072764;28;20464;-80
2022/01/02 06:12:10;;;;;;;10.48;7.68;;;;;;;;;;5073216;28;20530;-77
2022/01/02 06:14:37;;;;;;;8.15;6.97;;;;;;;;;;5073131;28;20542;-75
2022/01/02 06:17:03;;;;;;;7.93;6.53;;;;;;;;;;5072929;28;20103;-78
2022/01/02 06:19:29;;;;;;;6.57;5.90;;;;;;;;;;5073157;28;20487;-75
2022/01/02 06:21:55;;;;;;;10.02;7.03;;;;;;;;;;5073057;28;20046;-76
2022/01/02 06:24:21;;;;;;;8.50;7.45;;;;;;;;;;5072946;28;20036;-75
2022/01/02 06:27:06;;;;;;;7.95;6.68;;;;;;;;;;5072921;28;20095;-75
2022/01/02 06:29:34;;;;;;;;;;;;;;;;;;5072517;28;20477;-76
2022/01/02 06:32:00;;;;;;;7.25;6.25;;;;;;;;;;5073365;28;19908;-83
2022/01/02 06:34:27;;;;;;;8.63;7.28;;;;;;;;;;5072439;28;20032;-79
2022/01/02 06:36:53;;;;;;;14.60;12.15;;;;;;;;;;5071770;28;20029;-77
2022/01/02 06:39:19;;;;;;;12.18;9.43;;;;;;;;;;5071606;28;20476;-80
2022/01/02 06:41:45;;;;;;;8.75;7.35;;;;;;;;;;5072817;28;20021;-80
2022/01/02 06:44:11;;;;;;;9.57;7.13;;;;;;;;;;5071370;28;20399;-80
2022/01/02 06:46:45;;;;;;;8.25;6.70;;;;;;;;;;5072380;28;20495;-78
2022/01/02 06:49:11;;;;;;;8.87;7.17;;;;;;;;;;5072734;28;20037;-82
2022/01/02 06:51:39;;;;;;;9.70;7.95;;;;;;;;;;5072550;28;20024;-77
2022/01/02 06:54:06;;;;;;;7.35;6.55;;;;;;;;;;5072798;28;20032;-81
2022/01/02 06:56:32;;;;;;;8.77;6.72;;;;;;;;;;5072083;28;20024;-80
2022/01/02 06:58:58;;;;;;;6.82;6.13;;;;;;;;;;5072503;28;20028;-76
2022/01/02 07:01:24;;;;;;;7.72;6.30;;;;;;;;;;5072456;28;20464;-81
2022/01/02 07:03:50;;;;;;;7.55;6.00;;;;;;;;;;5072603;28;20029;-81
2022/01/02 07:06:16;;;;;;;8.68;6.95;;;;;;;;;;5072608;28;20486;-80
2022/01/02 07:08:42;;;;;;;6.35;5.75;;;;;;;;;;5078149;28;20107;-79
2022/01/02 07:11:12;;;;;;;7.25;5.95;;;;;;;;;;5076105;28;20054;-81
2022/01/02 07:13:40;;;;;;;12.40;7.57;;;;;;;;;;5076171;28;20112;-80
2022/01/02 07:16:06;;;;;;;11.20;8.07;;;;;;;;;;5072273;28;20115;-76
2022/01/02 07:18:32;;;;;;;9.60;6.93;;;;;;;;;;5070925;28;20468;-81
2022/01/02 07:20:58;;;;;;;9.05;7.63;;;;;;;;;;5071647;28;20025;-78
2022/01/02 07:23:24;;;;;;;11.02;7.18;;;;;;;;;;5071831;28;20028;-75
2022/01/02 07:25:50;;;;;;;8.98;7.68;;;;;;;;;;5071957;28;20049;-79
2022/01/02 07:28:17;;;;;;;7.60;6.80;;;;;;;;;;5072198;28;20031;-77
2022/01/02 07:30:43;;;;;;;7.97;7.05;;;;;;;;;;5071996;28;20051;-82
2022/01/02 07:33:09;;;;;;;8.23;5.72;;;;;;;;;;5072162;28;20033;-79
2022/01/02 07:35:35;;;;;;;6.88;5.55;;;;;;;;;;5072044;28;20102;-78
2022/01/02 07:38:02;;;;;;;8.80;6.63;;;;;;;;;;5071929;28;20020;-83
2022/01/02 07:40:28;;;;;;;8.35;6.38;;;;;;;;;;5072152;28;20021;-78
2022/01/02 07:42:54;;;;;;;8.77;7.88;;;;;;;;;;5071999;28;20108;-81
2022/01/02 07:45:21;;;;;;;11.65;9.20;;;;;;;;;;5071929;28;20032;-80
2022/01/02 07:47:47;;;;;;;11.57;8.95;;;;;;;;;;5071844;28;20037;-80
2022/01/02 07:50:14;;;;;;;7.13;6.43;;;;;;;;;;5072065;28;20037;-81
2022/01/02 07:52:40;;;;;;;7.82;6.78;;;;;;;;;;5070511;28;20017;-84
2022/01/02 07:55:06;;;;;;;7.90;7.07;;;;;;;;;;5072064;28;20024;-77
2022/01/02 07:57:33;;;;;;;8.88;7.05;;;;;;;;;;5072068;28;20024;-80
2022/01/02 07:59:59;;;;;;;9.50;7.13;;;;;;;;;;5071716;28;20494;-76
2022/01/02 08:02:25;;;;;;;9.73;6.65;;;;;;;;;;5072069;28;20037;-78
2022/01/02 08:04:51;;;;;;;8.15;7.35;;;;;;;;;;5071490;28;20044;-80
2022/01/02 08:07:20;;;;;;;10.88;7.85;;;;;;;;;;5072062;28;20104;-78
2022/01/02 08:09:46;;;;;;;13.95;10.85;;;;;;;;;;5070566;28;20032;-78
2022/01/02 08:12:12;;;;;;;12.63;10.10;;;;;;;;;;5071893;28;20039;-81
2022/01/02 08:14:38;;;;;;;12.80;10.10;;;;;;;;;;5071695;28;20029;-76
2022/01/02 08:17:04;;;;;;;8.65;7.45;;;;;;;;;;5071752;28;20104;-82
2022/01/02 08:19:30;;;;;;;9.60;7.95;;;;;;;;;;5071900;28;20123;-76
2022/01/02 08:21:58;;;;;;;11.60;8.48;;;;;;;;;;5071658;28;20021;-82
2022/01/02 08:24:25;;;;;;;8.82;7.80;;;;;;;;;;5071478;28;20088;-81
2022/01/02 08:26:54;;;;;;;10.35;8.43;;;;;;;;;;5071350;28;20067;-80
2022/01/02 08:29:20;;;;;;;13.13;9.05;;;;;;;;;;5071691;28;20082;-80
2022/01/02 08:31:46;;;;;;;11.70;9.70;;;;;;;;;;5071483;28;20494;-79
2022/01/02 08:34:12;;;;;;;9.18;7.43;;;;;;;;;;5071775;28;20524;-75
2022/01/02 08:36:38;;;;;;;8.93;7.43;;;;;;;;;;5073871;28;20491;-83
2022/01/02 08:39:05;;;;;;;9.73;7.43;;;;;;;;;;5075066;28;20070;-81
2022/01/02 08:41:31;;;;;;;7.55;6.55;;;;;;;;;;5075214;28;20027;-78
2022/01/02 08:43:57;;;;;;;9.48;6.90;;;;;;;;;;5073322;28;20032;-79
2022/01/02 08:46:23;;;;;;;7.57;6.88;;;;;;;;;;5075189;28;20163;-83
2022/01/02 08:48:49;;;;;;;7.70;6.13;;;;;;;;;;5074993;28;20064;-77
2022/01/02 08:51:15;;;;;;;8.23;6.85;;;;;;;;;;5075085;28;20040;-78
2022/01/02 08:53:41;;;;;;;7.70;6.45;;;;;;;;;;5075178;28;20387;-76
2022/01/02 08:56:08;;;;;;;12.40;9.40;;;;;;;;;;5074703;28;20055;-76
2022/01/02 08:58:34;;;;;;;9.88;8.05;;;;;;;;;;5074999;28;20025;-77
2022/01/02 09:01:00;;;;;;;12.02;10.00;;;;;;;;;;5074545;28;20024;-78
2022/01/02 09:03:27;;;;;;;10.90;8.48;;;;;;;;;;5074876;28;20422;-81
2022/01/02 09:05:53;;;;;;;11.73;8.35;;;;;;;;;;5074115;28;20078;-76
2022/01/02 09:08:19;;;;;;;10.93;9.10;;;;;;;;;;5074132;28;20078;-79
2022/01/02 09:10:45;;;;;;;9.77;7.03;;;;;;;;;;5075053;28;20034;-75
2022/01/02 09:13:11;;;;;;;9.48;6.72;;;;;;;;;;5074419;28;20041;-83
2022/01/02 09:15:37;;;;;;;8.13;6.45;;;;;;;;;;5073940;28;20029;-78
2022/01/02 09:18:05;;;;;;;7.03;5.85;;;;;;;;;;5074231;28;20095;-78
2022/01/02 09:20:31;;;;;;;6.20;5.35;;;;;;;;;;5074373;28;20032;-76
2022/01/02 09:22:57;;;;;;;6.90;5.65;;;;;;;;;;5074205;28;20029;-74
2022/01/02 09:25:23;;;;;;;7.70;6.00;;;;;;;;;;5074049;28;20391;-79
2022/01/02 09:27:52;;;;;;;10.73;8.90;;;;;;;;;;5067752;28;20488;-76
2022/01/02 09:30:18;;;;;;;12.85;9.73;;;;;;;;;;5060974;28;20028;-81
2022/01/02 09:32:44;;;;;;;10.98;8.10;;;;;;;;;;5074013;28;20032;-76
2022/01/02 09:35:11;;;;;;;9.75;8.30;;;;;;;;;;5072536;28;20028;-82
2022/01/02 09:37:38;;;;;;;9.73;6.93;;;;;;;;;;5074344;28;21227;-76
2022/01/02 09:40:07;;;;;;;10.98;8.88;;;;;;;;;;5073811;28;20025;-80
2022/01/02 09:42:34;;;;;;;8.48;5.75;;;;;;;;;;5073690;28;20054;-80
2022/01/02 09:45:00;;;;;;;10.63;8.02;;;;;;;;;;5073568;28;20055;-77
2022/01/02 09:47:27;;;;;;;5.55;4.70;;;;;;;;;;5073706;28;20063;-82
2022/01/02 09:49:53;;;;;;;4.97;3.92;;;;;;;;;;5073818;28;20078;-73
2022/01/02 09:52:19;;;;;;;4.72;3.80;;;;;;;;;;5073571;28;20039;-76
2022/01/02 09:54:46;;;;;;;6.10;4.22;;;;;;;;;;5073765;28;20422;-79
2022/01/02 09:57:13;;;;;;;5.57;4.90;;;;;;;;;;5073610;28;20033;-77
2022/01/02 09:59:39;;;;;;;5.97;4.10;;;;;;;;;;5073765;28;20107;-79
2022/01/02 10:02:05;;;;;;;6.43;4.85;;;;;;;;;;5073518;28;20107;-77
2022/01/02 10:04:32;;;;;;;6.43;4.60;;;;;;;;;;5073160;28;20067;-79
2022/01/02 10:07:01;;;;;;;6.35;4.13;;;;;;;;;;5073568;28;20037;-77
2022/01/02 10:09:31;;;;;;;7.53;5.65;;;;;;;;;;5073407;28;20482;-79
2022/01/02 10:12:15;;;;;;;7.22;5.57;;;;;;;;;;5073405;28;20506;-75
2022/01/02 10:14:41;;;;;;;7.15;6.40;;;;;;;;;;5073440;28;20474;-79
2022/01/02 10:17:07;;;;;;;6.28;4.72;;;;;;;;;;5073278;28;20103;-78
2022/01/02 10:19:38;;;;;;;7.90;4.18;;;;;;;;;;5073281;28;20024;-83
2022/01/02 10:22:05;;;;;;;8.00;5.63;;;;;;;;;;5073183;28;20031;-82
2022/01/02 10:24:33;;;;;;;6.85;5.32;;;;;;;;;;5071666;28;20056;-73
2022/01/02 10:27:07;;;;;;;3.75;3.15;;;;;;;;;;5072727;28;20035;-80
2022/01/02 10:30:06;;;;;;;4.32;3.55;;;;;;;;;;5073052;28;20502;-77
2022/01/02 10:32:33;;;;;;;4.95;4.30;;;;;;;;;;5038840;28;20540;-83
2022/01/02 10:35:18;;;;;;;7.57;6.38;;;;;;;;;;5072824;28;20051;-79
2022/01/02 10:37:44;;;;;;;;;;;;;;;;;;5073174;28;20021;-78
2022/01/02 10:40:30;;;;;;;4.47;3.22;;;;;;;;;;5072519;28;19957;-79
2022/01/02 10:42:57;;;;;;;5.60;4.78;;;;;;;;;;5072324;28;20024;-82
2022/01/02 10:45:32;;;;;;;3.85;3.28;;;;;;;;;;5072848;28;20043;-80
2022/01/02 10:47:59;;;;;;;14.52;10.55;;;;;;;;;;5072643;28;20035;-81
2022/01/02 10:50:25;;;;;;;5.00;3.65;;;;;;;;;;5072189;28;20024;-79
2022/01/02 10:52:51;;;;;;;4.45;3.92;;;;;;;;;;5072366;28;20029;-78
2022/01/02 10:55:18;;;;;;;5.22;3.90;;;;;;;;;;5071000;28;20043;-81
2022/01/02 10:57:49;;;;;;;6.72;5.20;;;;;;;;;;5071314;28;20460;-79
2022/01/02 11:00:16;;;;;;;7.43;5.80;;;;;;;;;;5071870;28;20334;-83
2022/01/02 11:02:44;;;;;;;11.13;9.05;;;;;;;;;;5072300;28;20111;-80
2022/01/02 11:05:11;;;;;;;10.38;8.65;;;;;;;;;;5072344;28;20040;-78
2022/01/02 11:07:43;;;;;;;9.07;7.72;;;;;;;;;;5072502;28;20059;-73
2022/01/02 11:10:13;;;;;;;11.48;10.30;;;;;;;;;;5072612;28;21234;-81
2022/01/02 11:12:40;;;;;;;9.32;6.60;;;;;;;;;;5072319;28;20028;-80
2022/01/02 11:15:07;;;;;;;2.95;2.30;;;;;;;;;;5072446;28;20035;-79
2022/01/02 11:17:37;;;;;;;3.70;2.95;;;;;;;;;;5072172;28;20537;-81
2022/01/02 11:20:21;;;;;;;6.72;5.20;;;;;;;;;;5071081;28;20426;-80
2022/01/02 11:22:47;;;;;;;;;;;;;;;;;;5072871;28;20444;-75
2022/01/02 11:25:16;;;;;;;5.35;4.28;;;;;;;;;;5072110;28;19959;-75
2022/01/02 11:27:45;;;;;;;3.13;2.40;;;;;;;;;;5072432;28;20033;-80
2022/01/02 11:30:30;;;;;;;7.15;4.45;;;;;;;;;;5072162;28;20028;-74
2022/01/02 11:33:15;;;;;;;7.03;3.67;;;;;;;;;;5069977;28;20456;-77
2022/01/02 11:35:47;;;;;;;3.53;2.70;;;;;;;;;;5053846;28;20528;-80
2022/01/02 11:38:15;;;;;;;4.35;2.58;;;;;;;;;;5055272;28;20106;-80
2022/01/02 11:40:58;;;;;;;3.83;3.25;;;;;;;;;;5052995;28;20108;-76
2022/01/02 11:43:49;;;;;;;5.45;3.15;;;;;;;;;;5052962;28;20033;-80
2022/01/02 11:46:24;;;;;;;6.07;4.28;;;;;;;;;;5051766;28;20416;-79
2022/01/02 11:49:13;;;;;;;4.57;3.38;;;;;;;;;;5052171;28;20028;-80
2022/01/02 11:51:48;;;;;;;4.20;2.40;;;;;;;;;;5051904;28;20017;-75
2022/01/02 11:54:40;;;;;;;5.05;3.80;;;;;;;;;;5051901;28;20096;-75
2022/01/02 11:57:15;;;;;;;5.80;3.30;;;;;;;;;;5050925;28;20033;-81
2022/01/02 11:59:42;;;;;;;5.00;4.40;;;;;;;;;;5052059;28;20025;-76
2022/01/02 12:02:09;;;;;;;12.10;9.30;;;;;;;;;;5051820;28;20060;-84
2022/01/02 12:04:53;;;;;;;6.45;5.30;;;;;;;;;;5051928;28;20076;-84
2022/01/02 12:07:37;;;;;;;5.97;5.15;;;;;;;;;;5051936;28;20032;-82
2022/01/02 12:10:24;;;;;;;7.70;6.18;;;;;;;;;;5053144;28;20471;-81
2022/01/02 12:12:57;;;;;;;2.78;2.42;;;;;;;;;;5055715;28;20033;-81
2022/01/02 12:15:43;;;;;;;5.75;4.50;;;;;;;;;;5055385;28;20041;-78
2022/01/02 12:18:19;;;;;;;5.20;3.17;;;;;;;;;;5051783;28;20060;-79
2022/01/02 12:20:53;;;;;;;6.55;5.05;;;;;;;;;;5055836;28;20025;-82
2022/01/02 12:23:34;;;;;;;3.20;2.90;;;;;;;;;;5055760;28;20033;-78
2022/01/02 12:26:03;;;;;;;5.60;4.30;;;;;;;;;;5055201;28;20052;-77
2022/01/02 12:28:51;;;;;;;4.68;3.42;;;;;;;;;;5055695;28;20064;-76
2022/01/02 12:31:18;;;;;;;6.93;5.38;;;;;;;;;;5055317;28;20444;-76
2022/01/02 12:33:45;;;;;;;5.35;4.85;;;;;;;;;;5055360;28;20021;-79
2022/01/02 12:36:29;;;;;;;9.75;7.85;;;;;;;;;;5053832;28;20032;-80
2022/01/02 12:38:57;;;;;;;7.32;6.63;;;;;;;;;;5054268;28;20495;-82
2022/01/02 12:41:24;;;;;;;14.57;9.63;;;;;;;;;;5053584;28;20792;-77
2022/01/02 12:43:54;;;;;;;5.32;4.47;;;;;;;;;;5055302;28;20029;-82
2022/01/02 12:46:39;;;;;;;8.45;6.47;;;;;;;;;;5054949;28;20035;-77
2022/01/02 12:49:15;;;;;;;13.98;11.40;;;;;;;;;;5054880;28;20029;-78
2022/01/02 12:51:45;;;;;;;4.38;3.78;;;;;;;;;;5054925;28;20068;-75
2022/01/02 12:54:13;;;;;;;5.97;4.28;;;;;;;;;;5055046;28;20025;-80
2022/01/02 12:56:47;;;;;;;4.28;3.88;;;;;;;;;;5054928;28;20051;-74
2022/01/02 12:59:16;;;;;;;3.83;3.42;;;;;;;;;;5054803;28;20510;-82
2022/01/02 13:02:02;;;;;;;5.70;4.65;;;;;;;;;;5054765;28;20025;-77
2022/01/02 13:04:36;;;;;;;10.48;7.65;;;;;;;;;;5054506;28;20540;-81
2022/01/02 13:07:12;;;;;;;4.13;3.33;;;;;;;;;;5054801;28;20060;-77
2022/01/02 13:09:51;;;;;;;5.43;3.90;;;;;;;;;;5054763;28;20059;-81
2022/01/02 13:12:24;;;;;;;3.92;3.35;;;;;;;;;;5054463;28;20108;-78
2022/01/02 13:14:51;;;;;;;6.22;5.55;;;;;;;;;;5054531;28;20029;-79
2022/01/02 13:17:39;;;;;;;5.45;3.60;;;;;;;;;;5054575;28;20029;-82
2022/01/02 13:20:07;;;;;;;7.45;6.65;;;;;;;;;;5054566;28;20029;-80
2022/01/02 13:22:36;;;;;;;18.27;13.20;;;;;;;;;;5053754;28;20538;-79
2022/01/02 13:25:10;;;;;;;3.83;3.00;;;;;;;;;;5054141;28;20048;-77
2022/01/02 13:27:47;;;;;;;2.83;2.45;;;;;;;;;;5054190;28;20119;-77
2022/01/02 13:30:16;;;;;;;4.28;2.97;;;;;;;;;;5054396;28;20035;-76
2022/01/02 13:32:43;;;;;;;4.30;3.45;;;;;;;;;;5054272;28;20067;-79
2022/01/02 13:35:15;;;;;;;5.50;3.55;;;;;;;;;;5054186;28;20389;-84
2022/01/02 13:37:43;;;;;;;4.30;3.05;;;;;;;;;;5054223;28;20079;-79
2022/01/02 13:40:22;;;;;;;4.35;3.65;;;;;;;;;;5054026;28;20056;-74
2022/01/02 13:42:52;;;;;;;11.35;8.52;;;;;;;;;;5054019;28;20507;-79
2022/01/02 13:45:32;;;;;;;9.95;7.68;;;;;;;;;;5053488;28;20112;-80
2022/01/02 13:48:09;;;;;;;12.20;9.93;;;;;;;;;;5053635;28;20037;-79
2022/01/02 13:50:36;;;;;;;9.98;8.98;;;;;;;;;;5052927;28;20037;-79
2022/01/02 13:53:13;;;;;;;8.82;7.60;;;;;;;;;;5053843;28;20455;-83
2022/01/02 13:55:40;;;;;;;15.18;11.10;;;;;;;;;;5053601;28;20434;-76
2022/01/02 13:58:25;;;;;;;7.22;5.85;;;;;;;;;;5053770;28;20052;-78
2022/01/02 14:01:01;;;;;;;5.43;4.22;;;;;;;;;;5052417;28;20025;-81
2022/01/02 14:03:46;;;;;;;4.50;3.05;;;;;;;;;;5053359;28;20091;-81
2022/01/02 14:06:13;;;;;;;7.10;5.28;;;;;;;;;;5053356;28;20047;-78
2022/01/02 14:08:40;;;;;;;4.93;4.00;;;;;;;;;;5053420;28;20025;-74
2022/01/02 14:11:06;;;;;;;4.35;3.30;;;;;;;;;;5053202;28;20502;-82
2022/01/02 14:13:49;;;;;;;4.45;3.38;;;;;;;;;;5053547;28;20029;-78
2022/01/02 14:18:57;;;;;;;8.75;7.15;;;;;;;;;;5053324;28;20380;-79
2022/01/02 14:21:26;;;;;;;8.80;7.20;;;;;;;;;;5053336;28;20431;-78
2022/01/02 14:23:52;;;;;;;10.68;8.13;;;;;;;;;;5052885;28;20107;-81
2022/01/02 14:26:18;;;;;;;11.75;9.15;;;;;;;;;;5052810;28;20554;-80
2022/01/02 14:28:44;;;;;;;11.57;8.32;;;;;;;;;;5053108;28;20029;-81
2022/01/02 14:31:10;;;;;;;12.48;9.07;;;;;;;;;;5053248;28;20029;-82
2022/01/02 14:33:36;;;;;;;10.60;6.90;;;;;;;;;;5051861;28;20408;-81
2022/01/02 14:36:03;;;;;;;11.48;8.25;;;;;;;;;;5053190;28;20029;-78
2022/01/02 14:38:29;;;;;;;12.43;10.65;;;;;;;;;;5052893;28;20053;-82
2022/01/02 14:40:56;;;;;;;16.77;14.60;;;;;;;;;;5052593;28;20025;-76
2022/01/02 14:43:22;;;;;;;19.85;17.60;;;;;;;;;;5052784;28;20017;-78
2022/01/02 14:45:48;;;;;;;22.08;17.55;;;;;;;;;;5051177;28;20040;-81
2022/01/02 14:48:14;;;;;;;30.10;20.25;;;;;;;;;;5052630;28;20033;-83
2022/01/02 14:50:40;;;;;;;45.70;29.45;;;;;;;;;;5052315;28;20021;-79
2022/01/02 14:53:07;;;;;;;68.95;46.50;;;;;;;;;;5071738;28;20039;-81
2022/01/02 14:55:33;;;;;;;42.45;34.78;;;;;;;;;;5071548;28;20036;-81
2022/01/02 14:57:59;;;;;;;30.02;23.83;;;;;;;;;;5072308;28;20061;-79
2022/01/02 15:00:28;;;;;;;19.77;17.52;;;;;;;;;;5072509;28;20032;-81
2022/01/02 15:02:54;;;;;;;18.50;16.38;;;;;;;;;;5072385;28;20028;-78
2022/01/02 15:05:21;;;;;;;22.25;18.65;;;;;;;;;;5072487;28;20039;-80
2022/01/02 15:07:47;;;;;;;20.45;18.35;;;;;;;;;;5072285;28;20024;-78